Hood Army Air Field Fort Hood(Killeen) US
ICAO: KHLR
IATA: HLR
Category: Medium
Scheduled Services: No

Elevation: 924 ft
TransAlt. 18000 ft.

Airport Communications:
GRAY APP/DEP:120.075
CLNC DEL:22.54
GND:133.85
RANGE CON:30.45
FORT HOOD FLT FLW:143.1
PMSV GRAY METRO:41.2
TWR:119.65

KHLR Zoom In..

If you have problems with the map follow the link
https://www.worldairports.se/pages/airport.php?
ICAO=KHLR

Runways:

(A) RW 16 length 3701 ft width 144 ft
---- / hdg 158

(B) RW 34 length 3701 ft width 144 ft
---- / hdg 338

Location; KHLR
Day. 24 / Time. 10.32 Zulu
* Altimeter: 30.00
* Temperature: 17° c. 62.6°f.
* Wind from: 170° Speed 05 kn.
Dewpoint: 16° c.
Visibility: 10 Statute Miles.
Clouds: Broken 1200 ft.
Clouds: Overcast 2500 ft.

KHLR 241032Z AUTO 17005KT 10SM BKN012 OVC025 17/16 A3000 RMK AO2 RAE17 CIG 012V026 SLP151


Wind From 170°
Speed 05 kn.

 
 
jpsmedia.com for Web Design worldairports.se 2019   terms of use